Time;durP1;ratioP1;P1;durP2;ratioP2;P2;SDS_P1;SDS_P2;PMS_P1;PMS_P2;Temp;Humidity;BMP_temperature;BMP_pressure;BME280_temperature;BME280_humidity;BME280_pressure;Samples;Min_cycle;Max_cycle;Signal;HPM_P1;HPM_P2
2024/01/22 00:00:13;;;;;;;10.77;6.05;;;7.90;99.90;;;;;;5031815;28;20065;-71
2024/01/22 00:02:39;;;;;;;13.75;6.35;;;8.00;99.90;;;;;;5045953;28;20369;-71
2024/01/22 00:05:05;;;;;;;10.23;5.78;;;8.00;99.90;;;;;;5050990;28;20511;-71
2024/01/22 00:07:31;;;;;;;12.43;6.18;;;8.00;99.90;;;;;;5032175;28;20052;-72
2024/01/22 00:10:19;;;;;;;10.85;6.47;;;8.00;99.90;;;;;;5033634;28;20407;-71
2024/01/22 00:12:45;;;;;;;12.75;6.40;;;8.00;99.90;;;;;;5050164;28;20423;-71
2024/01/22 00:15:11;;;;;;;7.82;5.57;;;8.00;99.90;;;;;;5071495;22;20045;-71
2024/01/22 00:17:37;;;;;;;9.50;5.60;;;8.00;99.90;;;;;;4998810;28;20068;-71
2024/01/22 00:20:25;;;;;;;10.43;6.28;;;8.20;99.90;;;;;;5051798;28;20084;-70
2024/01/22 00:22:51;;;;;;;7.95;5.20;;;8.20;99.90;;;;;;4981270;28;20033;-71
2024/01/22 00:25:16;;;;;;;9.38;5.90;;;8.20;99.90;;;;;;4995919;28;20042;-70
2024/01/22 00:27:42;;;;;;;8.70;5.50;;;8.20;99.90;;;;;;5022974;28;20476;-71
2024/01/22 00:30:08;;;;;;;8.82;4.78;;;8.30;99.90;;;;;;5016879;28;20049;-71
2024/01/22 00:32:33;;;;;;;7.90;5.32;;;8.20;99.90;;;;;;5002163;28;20024;-71
2024/01/22 00:34:59;;;;;;;9.48;5.72;;;8.20;99.90;;;;;;4996789;28;20392;-70
2024/01/22 00:37:25;;;;;;;10.00;5.93;;;8.20;99.90;;;;;;5004706;28;20046;-71
2024/01/22 00:39:55;;;;;;;8.02;5.28;;;8.20;99.90;;;;;;4986910;28;20035;-72
2024/01/22 00:42:21;;;;;;;7.97;5.40;;;8.30;99.90;;;;;;5008261;28;20478;-71
2024/01/22 00:44:46;;;;;;;6.72;4.65;;;8.30;99.90;;;;;;5026417;28;20037;-71
2024/01/22 00:47:12;;;;;;;10.88;5.70;;;8.40;99.90;;;;;;5016244;28;20084;-71
2024/01/22 00:49:37;;;;;;;9.38;5.68;;;8.40;99.90;;;;;;4992816;28;20046;-71
2024/01/22 00:52:03;;;;;;;8.10;5.60;;;8.40;99.90;;;;;;4995736;28;20048;-71
2024/01/22 00:54:29;;;;;;;8.13;5.65;;;8.50;99.90;;;;;;4992241;28;20065;-71
2024/01/22 00:56:55;;;;;;;9.15;5.45;;;8.40;99.90;;;;;;5010772;28;20062;-70
2024/01/22 00:59:21;;;;;;;9.73;5.18;;;8.40;99.90;;;;;;5008487;28;20085;-71
2024/01/22 01:01:47;;;;;;;7.13;5.30;;;8.50;99.90;;;;;;5000707;28;20372;-71
2024/01/22 01:04:12;;;;;;;7.90;5.15;;;8.50;99.90;;;;;;5013994;28;20042;-73
2024/01/22 01:06:38;;;;;;;8.05;5.45;;;8.60;99.90;;;;;;5014180;28;20071;-70
2024/01/22 01:09:04;;;;;;;8.75;5.28;;;8.60;99.90;;;;;;5037284;28;20076;-71
2024/01/22 01:11:29;;;;;;;8.38;5.43;;;8.70;99.90;;;;;;5028594;28;20049;-71
2024/01/22 01:13:55;;;;;;;8.93;5.38;;;8.70;99.90;;;;;;5015507;28;20435;-71
2024/01/22 01:16:21;;;;;;;7.30;4.63;;;8.80;99.90;;;;;;4993783;28;20046;-71
2024/01/22 01:18:46;;;;;;;6.07;4.60;;;8.90;99.90;;;;;;5028774;28;20132;-71
2024/01/22 01:21:12;;;;;;;9.93;5.25;;;8.90;99.90;;;;;;5020226;28;20096;-71
2024/01/22 01:23:41;;;;;;;7.43;4.57;;;9.00;99.90;;;;;;5021150;28;20030;-72
2024/01/22 01:26:06;;;;;;;6.85;5.10;;;9.00;99.90;;;;;;4998118;28;20063;-71
2024/01/22 01:28:32;;;;;;;8.05;5.40;;;9.30;99.90;;;;;;5006751;28;20451;-71
2024/01/22 01:30:57;;;;;;;12.73;4.80;;;9.30;99.90;;;;;;4973427;28;20069;-71
2024/01/22 01:33:23;;;;;;;6.85;4.47;;;9.20;99.90;;;;;;4990182;28;20133;-70
2024/01/22 01:35:48;;;;;;;8.18;5.10;;;9.40;99.90;;;;;;5011400;28;20360;-70
2024/01/22 01:38:14;;;;;;;7.40;4.60;;;9.30;99.90;;;;;;5023806;28;20077;-70
2024/01/22 01:40:41;;;;;;;7.13;5.03;;;9.40;99.90;;;;;;4998394;28;20084;-72
2024/01/22 01:43:06;;;;;;;9.30;5.20;;;9.30;99.90;;;;;;5012662;28;20054;-70
2024/01/22 01:45:32;;;;;;;7.28;5.18;;;9.30;99.90;;;;;;5013686;28;20111;-72
2024/01/22 01:47:57;;;;;;;6.57;4.50;;;9.20;99.90;;;;;;5008313;28;20046;-70
2024/01/22 01:50:56;;;;;;;6.97;4.72;;;9.20;99.90;;;;;;5012326;28;20500;-70
2024/01/22 01:53:22;;;;;;;7.93;4.97;;;9.20;99.90;;;;;;4998548;28;20602;-71
2024/01/22 01:55:49;;;;;;;6.90;4.88;;;9.20;99.90;;;;;;5017208;28;20045;-75
2024/01/22 01:58:17;;;;;;;8.02;4.95;;;9.10;99.90;;;;;;5002621;28;20052;-70
2024/01/22 02:00:47;;;;;;;8.68;5.15;;;9.10;99.90;;;;;;4963483;28;20042;-70
2024/01/22 02:03:12;;;;;;;6.55;4.82;;;9.10;99.90;;;;;;4972783;28;20444;-71
2024/01/22 02:05:38;;;;;;;10.45;5.55;;;9.10;99.90;;;;;;4993833;28;20037;-71
2024/01/22 02:08:04;;;;;;;7.35;5.10;;;9.00;99.90;;;;;;5017346;28;20103;-71
2024/01/22 02:10:29;;;;;;;7.72;5.13;;;9.10;99.90;;;;;;5014487;28;20091;-71
2024/01/22 02:12:55;;;;;;;8.63;5.78;;;9.10;99.90;;;;;;5024348;28;20045;-71
2024/01/22 02:15:20;;;;;;;7.50;5.28;;;9.00;99.90;;;;;;5140119;22;20415;-72
2024/01/22 02:17:47;;;;;;;8.43;5.75;;;9.00;99.90;;;;;;5067120;28;20041;-70
2024/01/22 02:20:13;;;;;;;8.52;6.00;;;9.00;99.90;;;;;;5049840;28;20088;-71
2024/01/22 02:26:13;;;;;;;8.23;5.63;;;9.10;99.90;;;;;;5020840;28;20057;-72
2024/01/22 02:32:20;;;;;;;7.45;5.18;;;9.00;99.90;;;;;;5056673;28;20517;-72
2024/01/22 02:35:39;;;;;;;7.22;5.15;;;9.00;99.90;;;;;;5058430;28;20025;-71
2024/01/22 02:38:04;;;;;;;7.68;5.15;;;9.00;99.90;;;;;;5001107;28;20128;-71
2024/01/22 02:40:33;;;;;;;7.75;5.15;;;9.00;99.90;;;;;;5024533;28;20049;-71
2024/01/22 02:42:59;;;;;;;9.90;5.50;;;9.00;99.90;;;;;;4981993;28;20184;-72
2024/01/22 02:45:24;;;;;;;9.50;5.53;;;9.00;99.90;;;;;;5064206;22;20045;-70
2024/01/22 02:47:50;;;;;;;7.53;5.63;;;9.10;99.90;;;;;;5026673;28;20040;-70
2024/01/22 02:53:52;;;;;;;7.72;5.07;;;9.20;99.90;;;;;;5038591;28;20056;-71
2024/01/22 02:56:24;;;;;;;9.80;5.30;;;9.20;99.90;;;;;;5061500;28;20025;-71
2024/01/22 02:58:50;;;;;;;8.00;4.72;;;9.20;99.90;;;;;;5031708;22;20037;-65
2024/01/22 03:01:16;;;;;;;8.32;5.20;;;9.30;99.90;;;;;;5012741;28;20041;-65
2024/01/22 03:03:42;;;;;;;7.07;4.20;;;9.30;99.90;;;;;;5015873;28;20034;-65
2024/01/22 03:06:08;;;;;;;7.25;5.18;;;9.30;99.90;;;;;;5005486;28;20117;-67
2024/01/22 03:08:34;;;;;;;8.10;4.95;;;9.30;99.90;;;;;;5024389;28;20045;-65
2024/01/22 03:11:00;;;;;;;5.88;4.47;;;9.30;99.90;;;;;;5029159;28;20029;-66
2024/01/22 03:13:25;;;;;;;7.50;5.32;;;9.40;99.90;;;;;;5028555;28;20052;-65
2024/01/22 03:15:51;;;;;;;7.07;4.70;;;9.30;99.90;;;;;;5033863;28;20040;-66
2024/01/22 03:18:16;;;;;;;7.63;5.10;;;9.30;99.90;;;;;;5029724;28;20045;-66
2024/01/22 03:20:42;;;;;;;9.63;4.68;;;9.20;99.90;;;;;;5008003;28;20076;-64
2024/01/22 03:23:07;;;;;;;8.82;5.20;;;9.20;99.90;;;;;;5032854;28;20514;-64
2024/01/22 03:25:33;;;;;;;5.93;4.65;;;9.30;99.90;;;;;;5033263;28;20495;-66
2024/01/22 03:27:58;;;;;;;8.15;5.03;;;9.20;99.90;;;;;;5021959;28;20625;-66
2024/01/22 03:30:24;;;;;;;7.25;5.03;;;9.30;99.90;;;;;;5031519;28;20503;-67
2024/01/22 03:32:49;;;;;;;6.63;4.60;;;9.30;99.90;;;;;;5032281;28;20110;-66
2024/01/22 03:35:15;;;;;;;6.32;4.90;;;9.30;99.90;;;;;;5024246;28;20037;-66
2024/01/22 03:37:41;;;;;;;6.93;4.60;;;9.30;99.90;;;;;;5031213;28;20036;-65
2024/01/22 03:40:08;;;;;;;8.00;4.28;;;9.40;99.90;;;;;;5032163;28;20046;-67
2024/01/22 03:42:34;;;;;;;7.95;4.57;;;9.30;99.90;;;;;;5031654;28;20077;-66
2024/01/22 03:44:59;;;;;;;6.45;3.92;;;9.30;99.90;;;;;;5003747;28;20179;-65
2024/01/22 03:47:27;;;;;;;6.85;4.65;;;9.30;99.90;;;;;;5011814;28;20129;-65
2024/01/22 03:49:52;;;;;;;6.28;4.40;;;9.40;99.90;;;;;;5014793;28;20037;-65
2024/01/22 03:52:18;;;;;;;6.03;4.75;;;9.40;99.90;;;;;;5029492;28;20491;-68
2024/01/22 03:54:44;;;;;;;5.50;4.22;;;9.30;99.90;;;;;;5014851;28;20066;-65
2024/01/22 03:57:09;;;;;;;7.65;4.57;;;9.40;99.90;;;;;;5027364;28;20073;-65
2024/01/22 03:59:35;;;;;;;6.57;4.20;;;9.50;99.90;;;;;;5027334;28;20033;-68
2024/01/22 04:02:01;;;;;;;5.95;4.47;;;9.50;99.90;;;;;;5031036;28;20033;-64
2024/01/22 04:04:26;;;;;;;8.18;4.93;;;9.40;99.90;;;;;;5031110;28;20041;-67
2024/01/22 04:06:52;;;;;;;5.43;4.43;;;9.50;99.90;;;;;;5031987;28;20040;-65
2024/01/22 04:09:17;;;;;;;7.38;4.82;;;9.50;99.90;;;;;;5020257;28;20045;-66
2024/01/22 04:11:43;;;;;;;5.82;4.57;;;9.50;99.90;;;;;;5031485;28;20040;-65
2024/01/22 04:14:08;;;;;;;7.40;5.30;;;9.50;99.90;;;;;;5031525;28;20061;-66
2024/01/22 04:16:34;;;;;;;6.60;4.45;;;9.50;99.90;;;;;;5028491;28;20033;-66
2024/01/22 04:18:59;;;;;;;7.68;4.55;;;9.50;99.90;;;;;;5010420;28;20044;-65
2024/01/22 04:21:26;;;;;;;7.53;4.82;;;9.40;99.90;;;;;;5031148;28;20037;-67
2024/01/22 04:23:52;;;;;;;5.72;4.78;;;9.50;99.90;;;;;;5030933;28;20068;-65
2024/01/22 04:26:17;;;;;;;9.85;4.90;;;9.60;99.90;;;;;;5010101;28;20077;-66
2024/01/22 04:28:43;;;;;;;5.47;4.82;;;9.60;99.90;;;;;;5032045;28;20036;-67
2024/01/22 04:31:09;;;;;;;6.53;4.80;;;9.60;99.90;;;;;;5035762;28;20117;-66
2024/01/22 04:33:34;;;;;;;7.03;4.47;;;9.60;99.90;;;;;;5023964;28;20117;-66
2024/01/22 04:36:00;;;;;;;6.55;5.38;;;9.60;99.90;;;;;;5018534;28;20030;-65
2024/01/22 04:38:26;;;;;;;6.50;4.85;;;9.60;99.90;;;;;;5026149;28;20495;-66
2024/01/22 04:40:51;;;;;;;6.22;5.10;;;9.60;99.90;;;;;;5030227;28;20040;-65
2024/01/22 04:43:21;;;;;;;5.25;4.70;;;9.60;99.90;;;;;;5004280;28;20049;-66
2024/01/22 04:45:47;;;;;;;6.57;4.45;;;9.60;99.90;;;;;;5022649;28;20098;-66
2024/01/22 04:48:13;;;;;;;5.72;4.25;;;9.70;99.90;;;;;;5030840;28;20037;-67
2024/01/22 04:50:38;;;;;;;6.03;4.55;;;9.80;99.90;;;;;;5001374;28;20033;-67
2024/01/22 04:53:04;;;;;;;5.80;4.47;;;9.80;99.90;;;;;;5018066;28;20113;-67
2024/01/22 04:55:30;;;;;;;5.00;4.00;;;9.70;99.90;;;;;;5012796;28;20037;-67
2024/01/22 04:57:55;;;;;;;4.75;4.07;;;9.80;99.90;;;;;;5023828;28;20040;-66
2024/01/22 05:00:21;;;;;;;6.30;4.15;;;9.80;99.90;;;;;;5027343;28;20073;-66
2024/01/22 05:02:47;;;;;;;4.75;3.80;;;9.90;99.90;;;;;;5019184;28;20038;-67
2024/01/22 05:05:12;;;;;;;6.18;4.40;;;9.80;99.90;;;;;;5022347;28;20042;-66
2024/01/22 05:07:38;;;;;;;3.90;3.40;;;9.90;99.90;;;;;;5006365;28;20052;-64
2024/01/22 05:10:04;;;;;;;4.07;3.50;;;10.00;99.90;;;;;;5012374;28;20045;-66
2024/01/22 05:12:30;;;;;;;5.45;4.30;;;10.10;99.90;;;;;;5028963;28;20095;-66
2024/01/22 05:14:56;;;;;;;4.53;3.50;;;10.10;99.90;;;;;;5030389;28;20495;-66
2024/01/22 05:17:22;;;;;;;4.45;3.60;;;10.20;99.90;;;;;;5002873;28;20041;-67
2024/01/22 05:19:47;;;;;;;3.72;3.17;;;10.20;99.90;;;;;;5008329;28;20045;-68
2024/01/22 05:22:13;;;;;;;5.35;3.65;;;10.20;99.90;;;;;;5012114;28;20033;-65
2024/01/22 05:24:39;;;;;;;4.70;3.70;;;10.20;99.90;;;;;;5019845;28;20047;-67
2024/01/22 05:27:07;;;;;;;4.53;3.55;;;10.30;99.90;;;;;;5027997;28;20041;-66
2024/01/22 05:29:32;;;;;;;3.58;3.20;;;10.40;99.90;;;;;;5011196;28;20458;-67
2024/01/22 05:31:58;;;;;;;4.55;3.45;;;10.40;99.90;;;;;;5023718;28;20034;-65
2024/01/22 05:34:24;;;;;;;3.88;3.47;;;10.40;99.90;;;;;;5019962;28;20038;-66
2024/01/22 05:36:49;;;;;;;4.30;3.25;;;10.40;99.90;;;;;;5029990;28;20117;-65
2024/01/22 05:39:15;;;;;;;5.25;3.67;;;10.40;99.90;;;;;;5030468;28;20128;-67
2024/01/22 05:41:41;;;;;;;3.72;3.15;;;10.40;99.90;;;;;;5018018;28;20038;-67
2024/01/22 05:44:07;;;;;;;5.85;3.55;;;10.50;99.90;;;;;;5025260;28;20056;-66
2024/01/22 05:46:33;;;;;;;4.38;3.35;;;10.60;99.90;;;;;;5031563;28;20045;-66
2024/01/22 05:48:59;;;;;;;4.28;2.92;;;10.60;99.90;;;;;;5033595;28;20041;-65
2024/01/22 05:51:25;;;;;;;4.05;3.25;;;10.60;99.90;;;;;;5017928;28;20550;-67
2024/01/22 05:53:51;;;;;;;3.83;2.92;;;10.70;99.90;;;;;;5011245;28;20690;-66
2024/01/22 05:56:20;;;;;;;4.25;3.20;;;10.60;99.90;;;;;;5027528;28;20037;-67
2024/01/22 05:58:46;;;;;;;5.07;3.60;;;10.70;99.90;;;;;;5026622;28;20055;-66
2024/01/22 06:01:21;;;;;;;3.80;2.85;;;10.70;99.90;;;;;;5021231;28;20049;-66
2024/01/22 06:03:47;;;;;;;4.20;2.83;;;10.70;99.90;;;;;;5027286;28;20113;-67
2024/01/22 06:06:14;;;;;;;3.60;2.80;;;10.60;99.90;;;;;;5029748;28;20140;-66
2024/01/22 06:08:47;;;;;;;3.75;2.80;;;10.60;99.90;;;;;;5022604;28;20130;-66
2024/01/22 06:11:13;;;;;;;3.35;2.60;;;10.70;99.90;;;;;;5021819;28;20065;-65
2024/01/22 06:13:39;;;;;;;4.70;3.03;;;10.70;99.90;;;;;;5019774;28;20038;-66
2024/01/22 06:16:12;;;;;;;5.85;3.65;;;10.70;99.90;;;;;;5019073;28;20511;-66
2024/01/22 06:18:39;;;;;;;12.13;3.05;;;10.70;99.90;;;;;;5022766;28;20037;-66
2024/01/22 06:21:06;;;;;;;5.95;3.17;;;10.70;99.90;;;;;;5014840;28;20060;-66
2024/01/22 06:23:32;;;;;;;4.22;2.50;;;10.70;99.90;;;;;;5038590;28;20041;-67
2024/01/22 06:25:58;;;;;;;6.60;3.33;;;10.80;99.90;;;;;;5029831;28;20339;-66
2024/01/22 06:28:29;;;;;;;5.47;2.67;;;10.70;99.90;;;;;;5029060;28;20060;-66
2024/01/22 06:30:55;;;;;;;4.63;2.50;;;10.70;99.90;;;;;;5010534;28;20112;-65
2024/01/22 06:33:21;;;;;;;4.20;2.50;;;10.80;99.90;;;;;;5032005;28;20161;-67
2024/01/22 06:35:48;;;;;;;3.50;2.60;;;10.80;99.90;;;;;;5029283;28;20501;-67
2024/01/22 06:38:17;;;;;;;5.10;2.80;;;10.80;99.90;;;;;;5030070;28;20052;-67
2024/01/22 06:40:44;;;;;;;4.63;3.03;;;10.80;99.90;;;;;;5003582;28;20053;-67
2024/01/22 06:43:10;;;;;;;4.40;3.08;;;10.80;99.90;;;;;;5028086;28;20732;-65
2024/01/22 06:45:36;;;;;;;4.38;3.00;;;10.90;99.90;;;;;;5029480;28;20080;-66
2024/01/22 06:48:02;;;;;;;5.80;3.13;;;10.90;99.90;;;;;;5018873;28;20080;-66
2024/01/22 06:50:27;;;;;;;4.93;2.58;;;10.90;99.90;;;;;;5028554;28;20079;-65
2024/01/22 06:52:53;;;;;;;4.65;2.58;;;10.90;99.90;;;;;;5028605;28;20041;-66
2024/01/22 06:55:19;;;;;;;5.40;2.60;;;11.00;99.90;;;;;;5020401;28;20040;-66
2024/01/22 06:57:45;;;;;;;8.07;2.65;;;11.00;99.90;;;;;;5018419;28;20037;-67
2024/01/22 07:00:11;;;;;;;7.53;2.78;;;11.00;99.90;;;;;;5027669;28;20084;-66
2024/01/22 07:02:41;;;;;;;6.32;2.33;;;11.00;99.90;;;;;;5032954;28;20049;-66
2024/01/22 07:05:08;;;;;;;7.40;2.13;;;11.10;99.90;;;;;;5003494;28;20128;-67
2024/01/22 07:07:35;;;;;;;8.52;2.50;;;11.30;99.90;;;;;;5030659;28;20095;-67
2024/01/22 07:10:01;;;;;;;8.73;2.40;;;11.30;99.90;;;;;;5026474;28;20052;-66
2024/01/22 07:12:29;;;;;;;7.68;2.60;;;11.40;99.90;;;;;;5029178;28;20523;-67
2024/01/22 07:14:55;;;;;;;7.95;2.40;;;11.40;99.90;;;;;;5013423;28;20498;-66
2024/01/22 07:17:20;;;;;;;4.78;2.28;;;11.50;99.90;;;;;;5031456;28;20116;-66
2024/01/22 07:19:46;;;;;;;8.90;2.28;;;11.50;99.90;;;;;;5023955;28;20033;-65
2024/01/22 07:22:12;;;;;;;11.73;3.10;;;11.50;99.90;;;;;;5024469;28;20091;-66
2024/01/22 07:24:38;;;;;;;9.00;2.88;;;11.50;99.90;;;;;;5031644;28;20120;-65
2024/01/22 07:27:03;;;;;;;9.55;2.45;;;11.50;99.90;;;;;;5014756;28;20041;-65
2024/01/22 07:29:30;;;;;;;10.98;2.92;;;11.40;99.90;;;;;;5025402;28;20042;-65
2024/01/22 07:31:56;;;;;;;9.23;2.50;;;11.40;99.90;;;;;;5008707;28;20060;-65
2024/01/22 07:34:22;;;;;;;10.35;2.50;;;11.60;99.90;;;;;;5013819;28;20120;-65
2024/01/22 07:36:47;;;;;;;9.02;2.92;;;11.60;99.90;;;;;;5009903;28;20124;-66
2024/01/22 07:39:13;;;;;;;6.00;2.15;;;11.40;99.90;;;;;;5027746;28;20045;-65
2024/01/22 07:41:38;;;;;;;15.68;2.97;;;11.50;99.90;;;;;;5031788;28;20496;-65
2024/01/22 07:44:05;;;;;;;8.77;2.55;;;11.50;99.90;;;;;;5014103;28;20042;-66
2024/01/22 07:46:31;;;;;;;15.18;3.00;;;11.50;99.90;;;;;;5008577;28;20117;-68
2024/01/22 07:48:56;;;;;;;15.82;3.10;;;11.50;99.90;;;;;;5031619;28;20037;-67
2024/01/22 07:51:22;;;;;;;12.18;3.03;;;11.60;99.90;;;;;;5032317;28;20064;-66
2024/01/22 07:53:48;;;;;;;12.70;2.60;;;11.60;99.90;;;;;;5003198;28;20099;-66
2024/01/22 07:56:13;;;;;;;12.27;2.90;;;11.70;99.90;;;;;;5021291;28;20038;-66
2024/01/22 07:58:39;;;;;;;11.77;2.95;;;11.70;99.90;;;;;;5030193;28;20037;-66
2024/01/22 08:01:06;;;;;;;12.48;2.65;;;11.60;99.90;;;;;;5032045;28;20603;-66
2024/01/22 08:03:31;;;;;;;10.70;3.00;;;11.60;99.90;;;;;;5018254;28;20452;-67
2024/01/22 08:05:58;;;;;;;12.60;3.00;;;11.50;99.90;;;;;;5029059;28;20038;-66
2024/01/22 08:08:28;;;;;;;14.52;3.83;;;11.40;99.90;;;;;;5013955;28;20041;-66
2024/01/22 08:10:54;;;;;;;12.30;2.95;;;11.40;99.90;;;;;;5007946;28;20491;-66
2024/01/22 08:13:20;;;;;;;13.13;2.92;;;11.30;99.90;;;;;;5024449;28;20052;-67
2024/01/22 08:15:47;;;;;;;12.68;3.17;;;11.20;99.90;;;;;;5029026;28;20044;-67
2024/01/22 08:18:13;;;;;;;11.32;3.22;;;11.10;99.90;;;;;;5023069;28;20117;-65
2024/01/22 08:20:39;;;;;;;9.93;3.30;;;11.10;99.90;;;;;;5030997;28;20092;-67
2024/01/22 08:23:05;;;;;;;11.65;3.80;;;11.10;99.90;;;;;;4998768;28;20049;-67
2024/01/22 08:25:30;;;;;;;10.32;3.55;;;11.10;99.90;;;;;;5026836;28;20049;-66
2024/01/22 08:27:56;;;;;;;12.82;3.13;;;11.10;99.90;;;;;;5023853;28;20107;-68
2024/01/22 08:30:22;;;;;;;9.25;2.70;;;11.10;99.90;;;;;;5014374;28;20065;-67
2024/01/22 08:32:48;;;;;;;9.82;3.22;;;11.20;99.90;;;;;;5030816;28;20045;-65
2024/01/22 08:35:15;;;;;;;9.30;3.30;;;11.20;99.90;;;;;;5025322;28;20038;-66
2024/01/22 08:37:40;;;;;;;9.00;3.00;;;11.20;99.90;;;;;;5030255;28;20030;-68
2024/01/22 08:40:08;;;;;;;10.55;2.85;;;11.10;99.90;;;;;;5030460;28;20396;-68
2024/01/22 08:42:34;;;;;;;6.88;3.13;;;11.10;99.90;;;;;;5037441;28;20413;-66
2024/01/22 08:44:59;;;;;;;10.70;3.10;;;11.10;99.90;;;;;;5004034;28;20383;-67
2024/01/22 08:47:25;;;;;;;12.48;3.50;;;11.00;99.90;;;;;;5028904;28;20035;-67
2024/01/22 08:49:50;;;;;;;13.18;3.17;;;11.00;99.90;;;;;;5028959;28;20423;-67
2024/01/22 08:52:16;;;;;;;11.38;3.28;;;11.00;99.90;;;;;;5026372;28;20033;-66
2024/01/22 08:54:41;;;;;;;11.48;3.28;;;11.10;99.90;;;;;;5017758;28;20034;-66
2024/01/22 08:57:07;;;;;;;11.48;3.20;;;11.10;99.90;;;;;;5023733;28;20438;-65
2024/01/22 08:59:33;;;;;;;12.60;3.22;;;11.00;99.90;;;;;;5023532;28;20045;-67
2024/01/22 09:01:59;;;;;;;12.45;3.40;;;11.00;99.90;;;;;;5024564;28;20036;-65
2024/01/22 09:04:24;;;;;;;7.93;2.95;;;11.10;99.90;;;;;;5027879;28;20057;-66
2024/01/22 09:06:51;;;;;;;13.02;3.83;;;11.10;99.90;;;;;;5017065;28;20037;-66
2024/01/22 09:09:17;;;;;;;10.70;3.50;;;11.00;99.90;;;;;;5023897;28;20050;-66
2024/01/22 09:11:42;;;;;;;11.80;3.22;;;11.00;99.90;;;;;;5029886;28;20041;-67
2024/01/22 09:14:08;;;;;;;9.15;3.50;;;11.00;99.90;;;;;;5030333;28;20041;-66
2024/01/22 09:16:34;;;;;;;10.25;3.10;;;11.00;99.90;;;;;;5020829;28;20439;-67
2024/01/22 09:18:59;;;;;;;10.60;2.67;;;11.00;99.90;;;;;;5025336;28;20029;-65
2024/01/22 09:21:25;;;;;;;10.38;2.72;;;11.00;99.90;;;;;;5029901;28;20048;-65
2024/01/22 09:23:51;;;;;;;12.30;3.10;;;11.00;99.90;;;;;;5030369;28;20033;-66
2024/01/22 09:26:16;;;;;;;13.82;3.28;;;11.00;99.90;;;;;;5007121;28;20110;-67
2024/01/22 09:28:42;;;;;;;14.90;3.40;;;11.00;99.90;;;;;;5019819;28;20037;-65
2024/01/22 09:31:07;;;;;;;19.67;3.72;;;10.90;99.90;;;;;;5030528;28;20091;-65
2024/01/22 09:33:33;;;;;;;19.17;4.30;;;10.90;99.90;;;;;;5022555;28;20042;-67
2024/01/22 09:36:01;;;;;;;24.80;4.18;;;10.90;99.90;;;;;;5029188;28;20404;-66
2024/01/22 09:38:27;;;;;;;22.30;5.10;;;10.90;99.90;;;;;;5029397;28;20037;-65
2024/01/22 09:40:52;;;;;;;29.25;5.22;;;10.80;99.90;;;;;;5029961;28;20148;-65
2024/01/22 09:43:19;;;;;;;25.67;4.57;;;10.80;99.90;;;;;;5003624;28;20407;-65
2024/01/22 09:45:47;;;;;;;22.60;4.50;;;10.90;99.90;;;;;;5029760;28;20041;-65
2024/01/22 09:48:13;;;;;;;27.23;5.15;;;10.90;99.90;;;;;;5029147;28;20054;-66
2024/01/22 09:50:39;;;;;;;29.00;6.03;;;10.90;99.90;;;;;;5004535;28;20049;-67
2024/01/22 09:53:15;;;;;;;32.47;5.10;;;10.90;99.90;;;;;;5028274;28;20072;-67
2024/01/22 09:55:42;;;;;;;32.42;5.63;;;10.90;99.90;;;;;;5029866;28;20029;-68
2024/01/22 09:58:09;;;;;;;30.98;5.65;;;10.90;99.90;;;;;;5023591;28;20045;-68
2024/01/22 10:00:39;;;;;;;25.02;4.60;;;10.90;99.90;;;;;;5028302;28;20048;-66
2024/01/22 10:03:05;;;;;;;31.10;5.13;;;11.00;99.90;;;;;;5028872;28;20029;-67
2024/01/22 10:05:31;;;;;;;32.58;5.22;;;11.00;99.90;;;;;;5029367;28;20040;-67
2024/01/22 10:07:57;;;;;;;27.25;5.45;;;10.90;99.90;;;;;;5020168;28;20185;-67
2024/01/22 10:10:22;;;;;;;32.72;5.38;;;11.00;99.90;;;;;;5027344;28;20119;-66
2024/01/22 10:13:04;;;;;;;38.33;5.95;;;11.00;99.90;;;;;;5021502;28;20037;-66
2024/01/22 10:15:32;;;;;;;29.70;5.80;;;11.00;99.90;;;;;;5027449;28;20135;-65
2024/01/22 10:18:07;;;;;;;37.47;5.70;;;11.00;99.90;;;;;;5015335;28;20041;-67
2024/01/22 10:20:33;;;;;;;31.98;6.03;;;11.00;99.90;;;;;;5022007;28;20373;-67
2024/01/22 10:23:01;;;;;;;36.38;5.95;;;11.00;99.90;;;;;;5019885;28;20033;-67
2024/01/22 10:25:28;;;;;;;32.05;5.70;;;11.00;99.90;;;;;;5025005;28;20084;-67
2024/01/22 10:28:26;;;;;;;34.17;5.40;;;11.00;99.90;;;;;;5029368;28;20029;-66
2024/01/22 10:31:02;;;;;;;31.95;5.95;;;11.00;99.90;;;;;;4967996;28;20050;-66
2024/01/22 10:33:28;;;;;;;33.38;5.25;;;11.00;99.90;;;;;;5030268;28;20073;-66
2024/01/22 10:35:55;;;;;;;30.98;4.97;;;11.00;99.90;;;;;;5029558;28;20068;-66
2024/01/22 10:38:20;;;;;;;34.38;5.20;;;11.00;99.90;;;;;;5023713;28;20076;-66
2024/01/22 10:40:47;;;;;;;26.48;5.05;;;11.00;99.90;;;;;;5025890;28;20637;-66
2024/01/22 10:43:27;;;;;;;39.92;6.22;;;11.00;99.90;;;;;;5031934;28;20033;-66
2024/01/22 10:45:54;;;;;;;34.30;5.38;;;10.90;99.90;;;;;;5030377;28;20056;-66
2024/01/22 10:48:24;;;;;;;29.70;5.15;;;11.00;99.90;;;;;;5027089;28;20081;-67
2024/01/22 10:50:51;;;;;;;34.72;6.22;;;10.90;99.90;;;;;;5014744;28;20029;-67
2024/01/22 10:53:18;;;;;;;32.95;5.72;;;11.00;99.90;;;;;;5032172;28;20112;-66
2024/01/22 10:56:12;;;;;;;25.40;5.40;;;11.00;99.90;;;;;;5032587;28;20029;-68
2024/01/22 10:58:44;;;;;;;31.88;6.30;;;11.00;99.90;;;;;;5006564;28;20380;-67
2024/01/22 11:01:18;;;;;;;34.83;5.78;;;11.00;99.90;;;;;;5014326;28;20495;-67
2024/01/22 11:03:53;;;;;;;36.15;6.43;;;10.90;99.90;;;;;;5014457;28;20403;-67
2024/01/22 11:06:23;;;;;;;35.17;5.88;;;10.90;99.90;;;;;;5029121;28;20060;-67
2024/01/22 11:08:51;;;;;;;33.03;5.47;;;10.90;99.90;;;;;;5027834;28;20116;-67
2024/01/22 11:11:24;;;;;;;30.33;4.85;;;10.80;99.90;;;;;;5032274;28;20091;-67
2024/01/22 11:13:51;;;;;;;29.65;5.07;;;10.90;99.90;;;;;;5025543;28;20038;-67
2024/01/22 11:16:20;;;;;;;37.35;6.60;;;11.00;99.90;;;;;;5028588;28;20045;-66
2024/01/22 11:19:00;;;;;;;32.75;5.72;;;11.00;99.90;;;;;;5032485;28;20037;-67
2024/01/22 11:21:39;;;;;;;30.33;5.57;;;11.10;99.90;;;;;;5011612;28;20041;-66
2024/01/22 11:24:19;;;;;;;28.73;6.03;;;11.00;99.90;;;;;;5003203;28;20099;-65
2024/01/22 11:26:51;;;;;;;35.65;6.78;;;11.00;99.90;;;;;;5019870;28;20042;-65
2024/01/22 11:29:22;;;;;;;31.67;6.10;;;11.00;99.90;;;;;;5028928;28;20057;-65
2024/01/22 11:31:48;;;;;;;39.47;5.85;;;11.00;99.90;;;;;;5004435;28;20037;-67
2024/01/22 11:34:14;;;;;;;29.13;5.85;;;11.00;99.90;;;;;;5028507;28;20800;-67
2024/01/22 11:36:50;;;;;;;30.80;5.25;;;11.10;99.90;;;;;;5024369;28;20040;-66
2024/01/22 11:39:43;;;;;;;33.75;5.72;;;11.10;99.90;;;;;;5007604;28;20049;-67
2024/01/22 11:42:25;;;;;;;30.98;7.03;;;11.10;99.90;;;;;;5030977;28;20049;-67
2024/01/22 11:44:52;;;;;;;29.75;4.68;;;11.10;99.90;;;;;;5027842;28;20037;-67
2024/01/22 11:47:22;;;;;;;28.45;4.88;;;11.10;99.90;;;;;;5021696;28;20030;-65
2024/01/22 11:49:48;;;;;;;28.98;5.43;;;11.10;99.90;;;;;;5012682;28;20037;-66
2024/01/22 11:52:16;;;;;;;30.52;5.95;;;11.10;99.90;;;;;;5031932;28;20041;-66
2024/01/22 11:54:55;;;;;;;27.50;4.95;;;11.10;99.90;;;;;;5033037;28;20036;-66
2024/01/22 11:57:21;;;;;;;28.60;4.45;;;11.00;99.90;;;;;;5022385;28;20296;-67
2024/01/22 12:00:09;;;;;;;27.13;5.15;;;11.00;99.90;;;;;;5030297;28;20030;-67
2024/01/22 12:02:36;;;;;;;30.13;4.75;;;11.00;99.90;;;;;;5032164;28;20049;-66
2024/01/22 12:05:09;;;;;;;30.50;4.63;;;11.00;99.90;;;;;;5026263;28;20030;-66
2024/01/22 12:07:37;;;;;;;29.85;4.22;;;10.90;99.90;;;;;;5035528;28;20048;-67
2024/01/22 12:10:04;;;;;;;23.98;4.13;;;11.00;99.90;;;;;;5029823;28;20041;-66
2024/01/22 12:12:30;;;;;;;25.95;4.82;;;11.00;99.90;;;;;;5024441;28;20037;-67
2024/01/22 12:14:57;;;;;;;24.92;4.68;;;11.00;99.90;;;;;;5018640;28;20146;-66
2024/01/22 12:17:24;;;;;;;24.50;5.35;;;11.10;99.90;;;;;;5026255;28;20515;-68
2024/01/22 12:19:54;;;;;;;25.60;5.85;;;11.00;99.90;;;;;;5023041;28;20415;-66
2024/01/22 12:22:22;;;;;;;24.67;4.55;;;11.10;99.90;;;;;;5020409;28;20046;-66
2024/01/22 12:25:04;;;;;;;24.75;4.97;;;11.00;99.90;;;;;;5032069;28;20041;-66
2024/01/22 12:27:30;;;;;;;21.83;4.10;;;10.90;99.90;;;;;;5029148;28;20033;-65
2024/01/22 12:30:08;;;;;;;27.92;4.43;;;10.90;99.90;;;;;;5020709;28;20075;-68
2024/01/22 12:32:37;;;;;;;22.17;5.07;;;10.90;99.90;;;;;;5019629;28;20076;-66
2024/01/22 12:35:03;;;;;;;22.67;5.00;;;10.90;99.90;;;;;;5026214;28;20038;-67
2024/01/22 12:37:30;;;;;;;25.02;5.68;;;10.80;99.90;;;;;;5009448;28;20084;-65
2024/01/22 12:40:10;;;;;;;23.58;4.95;;;10.70;99.90;;;;;;5027772;28;20083;-67
2024/01/22 12:42:35;;;;;;;23.83;3.85;;;10.70;99.90;;;;;;5028551;28;20067;-65
2024/01/22 12:45:01;;;;;;;24.08;4.53;;;10.70;99.90;;;;;;5027124;28;20087;-66
2024/01/22 12:47:28;;;;;;;26.38;4.05;;;10.70;99.90;;;;;;5005971;28;20045;-65
2024/01/22 12:49:54;;;;;;;24.63;4.90;;;10.70;99.90;;;;;;5031456;28;20134;-68
2024/01/22 12:52:22;;;;;;;24.00;4.25;;;10.80;99.90;;;;;;5028024;28;20503;-67
2024/01/22 12:54:48;;;;;;;23.80;4.47;;;10.80;99.90;;;;;;5020165;28;20076;-68
2024/01/22 12:57:13;;;;;;;26.00;4.07;;;10.80;99.90;;;;;;5029068;28;20057;-66